Fruitland, Maryland
Current Conditions -  °F | °C
As of 4:54 AM on Thursday 29 Jan 2015 (Local Time) from KSBY Reporting Station
Clear Clear  
Wind Chill: 20°   Ceiling: Unl
Heat Index: 20°   Visibility: 10mi
Dew Point: 13°   Wind: 0mph
Humidity: 74%   Direction: NA
Pressure: 30.32"   Gusts: NA
Location:  38.32°N, 75.62°W
Report Text: KSBY 290954Z AUTO 00000KT 10SM CLR M07/M11 A3032 RMK AO2 SLP271 T10671106
Loading
Personal Weather Stations






























Interactive Weather Map New forecast layout! Learn more

10-Day Weather Forecast

Advertisements
Track Severe Weather on mobile